Time;durP1;ratioP1;P1;durP2;ratioP2;P2;SDS_P1;SDS_P2;PMS_P1;PMS_P2;Temp;Humidity;BMP_temperature;BMP_pressure;BME280_temperature;BME280_humidity;BME280_pressure;Samples;Min_cycle;Max_cycle;Signal;HPM_P1;HPM_P2
2022/01/07 00:03:06;;;;;;;7.45;2.25;;;;;;;-2.16;100.00;98617.59;10502870;28;20504;-59
2022/01/07 00:08:11;;;;;;;10.90;2.60;;;;;;;-2.17;100.00;98600.88;10481736;28;20118;-60
2022/01/07 00:13:14;;;;;;;6.40;2.20;;;;;;;-2.11;100.00;98601.53;10481475;28;20423;-59
2022/01/07 00:18:17;;;;;;;5.90;2.70;;;;;;;-2.07;100.00;98579.31;10479719;28;20127;-60
2022/01/07 00:23:22;;;;;;;6.03;2.65;;;;;;;-2.09;100.00;98581.19;10478610;28;20066;-60
2022/01/07 00:28:26;;;;;;;12.30;2.90;;;;;;;-2.09;100.00;98578.53;10462435;28;20143;-60
2022/01/07 00:33:29;;;;;;;7.68;2.63;;;;;;;-2.10;100.00;98576.84;10475783;28;20048;-59
2022/01/07 00:38:33;;;;;;;9.48;2.58;;;;;;;-2.16;100.00;98572.72;10467803;28;20131;-60
2022/01/07 00:43:36;;;;;;;8.02;2.70;;;;;;;-2.19;100.00;98567.59;10477376;28;20072;-59
2022/01/07 00:48:39;;;;;;;7.43;2.63;;;;;;;-2.22;100.00;98559.81;10463051;28;20040;-61
2022/01/07 00:53:44;;;;;;;9.02;2.70;;;;;;;-2.26;100.00;98556.47;10479571;28;20135;-59
2022/01/07 00:58:47;;;;;;;7.72;2.90;;;;;;;-2.27;100.00;98561.84;10488569;28;20056;-59
2022/01/07 01:03:50;;;;;;;11.75;3.10;;;;;;;-2.25;100.00;98555.56;10489786;28;20171;-61
2022/01/07 01:08:54;;;;;;;8.02;2.78;;;;;;;-2.28;100.00;98566.25;10494174;28;20136;-60
2022/01/07 01:13:57;;;;;;;11.90;3.00;;;;;;;-2.24;100.00;98554.63;10488380;28;20044;-61
2022/01/07 01:19:00;;;;;;;9.15;2.92;;;;;;;-2.27;100.00;98546.84;10489576;28;20036;-59
2022/01/07 01:24:06;;;;;;;12.57;3.80;;;;;;;-2.27;100.00;98557.41;10490497;28;20144;-60
2022/01/07 01:29:09;;;;;;;10.70;3.72;;;;;;;-2.26;100.00;98559.13;10487013;28;20040;-60
2022/01/07 01:34:13;;;;;;;10.48;3.45;;;;;;;-2.16;100.00;98554.25;10491097;28;20131;-61
2022/01/07 01:39:17;;;;;;;9.93;3.30;;;;;;;-2.19;100.00;98549.97;10488655;28;20094;-60
2022/01/07 01:44:21;;;;;;;9.68;3.83;;;;;;;-2.18;100.00;98541.13;10487065;28;20453;-60
2022/01/07 01:49:24;;;;;;;12.48;3.53;;;;;;;-2.16;100.00;98535.78;10491961;28;20115;-60
2022/01/07 01:54:28;;;;;;;14.00;3.47;;;;;;;-2.19;100.00;98523.59;10488780;28;20119;-60
2022/01/07 01:59:32;;;;;;;8.07;4.10;;;;;;;-2.18;100.00;98521.78;10473755;28;20131;-61
2022/01/07 02:04:37;;;;;;;11.05;4.10;;;;;;;-2.23;100.00;98519.38;10489783;28;20044;-60
2022/01/07 02:09:41;;;;;;;10.52;4.00;;;;;;;-2.21;100.00;98512.25;10482505;28;20458;-59
2022/01/07 02:14:52;;;;;;;11.13;4.10;;;;;;;-2.21;100.00;98499.06;10486941;28;20041;-60
2022/01/07 02:19:57;;;;;;;11.40;4.28;;;;;;;-2.18;100.00;98496.28;10483015;28;20100;-60
2022/01/07 02:25:00;;;;;;;10.48;3.80;;;;;;;-2.19;100.00;98489.28;10481775;28;20048;-60
2022/01/07 02:30:07;;;;;;;13.45;3.90;;;;;;;-2.19;100.00;98484.00;10464937;28;20144;-60
2022/01/07 02:35:13;;;;;;;11.13;3.80;;;;;;;-2.19;100.00;98475.22;10486359;28;20064;-60
2022/01/07 02:40:16;;;;;;;11.32;4.43;;;;;;;-2.22;100.00;98465.69;10485861;28;20098;-61
2022/01/07 02:45:19;;;;;;;11.10;4.45;;;;;;;-2.24;100.00;98462.25;10478330;28;20544;-60
2022/01/07 02:50:26;;;;;;;12.77;4.43;;;;;;;-2.24;100.00;98453.50;10477707;28;20043;-61
2022/01/07 02:55:29;;;;;;;11.85;4.07;;;;;;;-2.25;100.00;98442.06;10484596;28;20445;-60
2022/01/07 03:00:33;;;;;;;15.18;4.60;;;;;;;-2.20;100.00;98426.88;10443646;28;20043;-60
2022/01/07 03:05:41;;;;;;;11.40;4.22;;;;;;;-2.15;100.00;98428.38;10456253;28;20501;-60
2022/01/07 03:10:50;;;;;;;13.43;4.25;;;;;;;-2.06;100.00;98427.94;10465834;28;20127;-61
2022/01/07 03:15:54;;;;;;;12.35;4.40;;;;;;;-2.06;100.00;98422.66;10483648;28;20119;-61
2022/01/07 03:20:59;;;;;;;17.58;4.32;;;;;;;-2.04;100.00;98420.75;10461914;28;20044;-59
2022/01/07 03:26:03;;;;;;;12.80;4.38;;;;;;;-1.98;100.00;98417.78;10481173;28;20048;-60
2022/01/07 03:31:07;;;;;;;15.45;4.75;;;;;;;-1.97;100.00;98406.31;10484735;28;20147;-60
2022/01/07 03:36:11;;;;;;;13.07;4.53;;;;;;;-2.00;100.00;98405.63;10476255;28;20048;-61
2022/01/07 03:41:14;;;;;;;12.50;4.55;;;;;;;-2.02;100.00;98397.75;10485202;28;20113;-61
2022/01/07 03:46:18;;;;;;;12.65;4.60;;;;;;;-1.98;100.00;98394.03;10482310;28;20116;-61
2022/01/07 03:51:22;;;;;;;19.20;4.90;;;;;;;-1.93;100.00;98394.63;10483210;28;20115;-61
2022/01/07 03:56:25;;;;;;;13.68;4.88;;;;;;;-1.96;100.00;98384.25;10474513;28;20123;-60
2022/01/07 04:01:28;;;;;;;13.13;4.70;;;;;;;-1.99;100.00;98379.13;10483948;28;20610;-61
2022/01/07 04:06:34;;;;;;;14.13;4.88;;;;;;;-1.99;100.00;98376.50;10480683;28;20059;-58
2022/01/07 04:11:38;;;;;;;13.50;4.45;;;;;;;-1.99;100.00;98379.13;10477595;28;20125;-56
2022/01/07 04:16:42;;;;;;;13.95;4.70;;;;;;;-1.97;100.00;98379.91;10430645;28;20131;-55
2022/01/07 04:21:49;;;;;;;11.35;4.40;;;;;;;-1.96;100.00;98373.69;10481327;28;20508;-58
2022/01/07 04:26:52;;;;;;;12.48;4.70;;;;;;;-1.96;100.00;98375.47;10473109;28;20048;-60
2022/01/07 04:31:56;;;;;;;13.80;4.65;;;;;;;-1.94;100.00;98366.50;10490951;28;20074;-60
2022/01/07 04:37:00;;;;;;;14.82;4.80;;;;;;;-1.92;100.00;98351.44;10486738;28;20056;-59
2022/01/07 04:42:05;;;;;;;17.80;4.88;;;;;;;-1.93;100.00;98352.38;10491647;28;20048;-60
2022/01/07 04:47:08;;;;;;;13.27;5.07;;;;;;;-1.96;100.00;98341.13;10487651;28;20587;-58
2022/01/07 04:52:13;;;;;;;17.42;5.10;;;;;;;-1.96;100.00;98343.78;10484046;28;20053;-59
2022/01/07 04:57:17;;;;;;;14.95;5.35;;;;;;;-1.95;100.00;98341.06;10481621;28;20036;-57
2022/01/07 05:02:20;;;;;;;14.35;5.20;;;;;;;-1.88;100.00;98337.16;10472865;28;20094;-56
2022/01/07 05:07:25;;;;;;;14.93;5.85;;;;;;;-1.86;100.00;98324.72;10510371;28;20452;-60
2022/01/07 05:12:29;;;;;;;15.07;5.53;;;;;;;-1.84;100.00;98331.69;10512421;28;20076;-59
2022/01/07 05:17:33;;;;;;;15.63;6.10;;;;;;;-1.82;100.00;98316.63;10496426;28;20047;-58
2022/01/07 05:22:38;;;;;;;17.73;7.43;;;;;;;-1.71;100.00;98322.16;10487640;28;20455;-59
2022/01/07 05:27:42;;;;;;;18.08;6.70;;;;;;;-1.66;100.00;98314.81;10489136;28;20128;-59
2022/01/07 05:32:45;;;;;;;16.33;6.40;;;;;;;-1.59;100.00;98299.47;10488400;28;20075;-61
2022/01/07 05:37:50;;;;;;;18.60;5.70;;;;;;;-1.51;100.00;98299.88;10489910;28;20058;-59
2022/01/07 05:42:54;;;;;;;16.67;6.40;;;;;;;-1.45;100.00;98301.31;10491564;28;20155;-57
2022/01/07 05:47:57;;;;;;;15.77;6.70;;;;;;;-1.35;100.00;98307.75;10490579;28;20500;-60
2022/01/07 05:53:02;;;;;;;19.92;8.15;;;;;;;-1.29;100.00;98301.25;10492983;28;20143;-60
2022/01/07 05:58:06;;;;;;;18.92;7.38;;;;;;;-1.23;100.00;98298.28;10489485;28;20427;-59
2022/01/07 06:03:09;;;;;;;13.02;6.50;;;;;;;-1.22;100.00;98297.34;10489426;28;20063;-59
2022/01/07 06:08:14;;;;;;;16.85;7.40;;;;;;;-1.20;100.00;98284.00;10487085;28;20087;-59
2022/01/07 06:13:21;;;;;;;18.98;7.13;;;;;;;-1.17;100.00;98289.97;10484336;28;20390;-60
2022/01/07 06:18:25;;;;;;;16.33;7.18;;;;;;;-1.09;100.00;98302.72;10485751;28;20048;-59
2022/01/07 06:23:30;;;;;;;15.68;6.38;;;;;;;-1.08;100.00;98293.88;10486558;28;20041;-60
2022/01/07 06:28:34;;;;;;;16.63;6.38;;;;;;;-1.04;100.00;98292.75;10481169;28;20098;-58
2022/01/07 06:33:37;;;;;;;21.10;6.35;;;;;;;-1.03;100.00;98289.16;10478270;28;20152;-59
2022/01/07 06:38:42;;;;;;;16.30;6.45;;;;;;;-1.01;100.00;98279.34;10476778;28;20413;-61
2022/01/07 06:43:46;;;;;;;18.95;6.85;;;;;;;-0.97;100.00;98253.56;10486221;28;20477;-62
2022/01/07 06:48:50;;;;;;;19.60;6.20;;;;;;;-0.94;100.00;98271.88;10475071;28;20044;-60
2022/01/07 06:53:55;;;;;;;19.58;6.20;;;;;;;-0.93;100.00;98258.59;10481655;28;20048;-54
2022/01/07 06:58:58;;;;;;;13.65;5.20;;;;;;;-0.88;100.00;98246.88;10457499;28;20123;-57
2022/01/07 07:04:02;;;;;;;12.55;5.40;;;;;;;-0.84;100.00;98237.78;10484007;28;20204;-58
2022/01/07 07:09:07;;;;;;;14.82;4.82;;;;;;;-0.79;100.00;98244.50;10478901;28;20440;-53
2022/01/07 07:14:10;;;;;;;15.75;5.32;;;;;;;-0.76;100.00;98243.47;10468512;28;20481;-57
2022/01/07 07:19:14;;;;;;;16.80;5.20;;;;;;;-0.70;100.00;98234.28;10484923;28;20515;-54
2022/01/07 07:24:19;;;;;;;16.75;5.30;;;;;;;-0.70;100.00;98229.88;10461213;28;20044;-55
2022/01/07 07:29:23;;;;;;;11.43;4.85;;;;;;;-0.62;100.00;98235.53;10483754;28;20537;-55
2022/01/07 07:34:55;;;;;;;11.73;4.93;;;;;;;-0.62;100.00;98226.75;10487601;28;20142;-59
2022/01/07 07:39:59;;;;;;;15.60;5.78;;;;;;;-0.55;100.00;98241.28;10496336;28;20051;-51
2022/01/07 07:45:04;;;;;;;13.45;5.53;;;;;;;-0.52;100.00;98242.88;10501791;28;20040;-54
2022/01/07 07:50:08;;;;;;;14.88;5.38;;;;;;;-0.49;100.00;98232.97;10497833;28;20044;-55
2022/01/07 07:55:13;;;;;;;13.43;5.07;;;;;;;-0.44;100.00;98211.50;10478389;28;20086;-56
2022/01/07 08:00:17;;;;;;;14.82;5.30;;;;;;;-0.38;100.00;98218.22;10504754;28;20131;-52
2022/01/07 08:05:20;;;;;;;15.88;5.00;;;;;;;-0.35;100.00;98202.97;10512793;28;20135;-55
2022/01/07 08:10:27;;;;;;;16.17;5.28;;;;;;;-0.28;100.00;98202.56;10531525;28;20032;-56
2022/01/07 08:20:59;;;;;;;13.82;5.50;;;;;;;-0.19;100.00;98209.94;10512579;28;20068;-53
2022/01/07 08:26:07;;;;;;;11.32;5.10;;;;;;;-0.15;100.00;98190.25;10523767;28;20040;-54
2022/01/07 08:36:34;;;;;;;12.15;4.70;;;;;;;-0.05;100.00;98177.28;10529725;28;20055;-53
2022/01/07 08:41:40;;;;;;;11.68;4.88;;;;;;;0.02;100.00;98173.25;10515764;28;20571;-51
2022/01/07 08:46:44;;;;;;;11.05;4.32;;;;;;;0.06;100.00;98163.34;10511266;28;20052;-58
2022/01/07 08:51:47;;;;;;;14.43;4.88;;;;;;;0.11;100.00;98148.84;10533275;28;20506;-53
2022/01/07 08:56:51;;;;;;;10.88;4.28;;;;;;;0.18;100.00;98146.59;10525569;28;20040;-52
2022/01/07 09:01:55;;;;;;;11.35;4.20;;;;;;;0.24;100.00;98140.91;10521275;28;20540;-52
2022/01/07 09:06:58;;;;;;;11.27;4.32;;;;;;;0.30;100.00;98126.41;10512374;28;20634;-56
2022/01/07 09:12:04;;;;;;;9.38;4.38;;;;;;;0.34;100.00;98130.53;10531702;28;20454;-54
2022/01/07 09:17:07;;;;;;;8.15;4.30;;;;;;;0.40;100.00;98139.88;10529842;28;20040;-55
2022/01/07 09:22:10;;;;;;;12.30;4.55;;;;;;;0.45;100.00;98132.44;10532197;28;20123;-57
2022/01/07 09:27:15;;;;;;;11.73;4.32;;;;;;;0.52;100.00;98128.44;10527880;28;20059;-56
2022/01/07 09:32:20;;;;;;;10.20;4.40;;;;;;;0.59;100.00;98118.25;10532133;28;20763;-55
2022/01/07 09:37:23;;;;;;;7.65;3.40;;;;;;;0.66;100.00;98114.22;10512165;28;20416;-51
2022/01/07 09:42:29;;;;;;;10.70;4.30;;;;;;;0.72;100.00;98100.53;10531657;28;20122;-55
2022/01/07 09:47:33;;;;;;;11.68;3.88;;;;;;;0.79;100.00;98092.16;10531288;28;20036;-56
2022/01/07 09:52:42;;;;;;;9.65;3.78;;;;;;;0.86;100.00;98088.09;10531682;28;20492;-55
2022/01/07 09:57:48;;;;;;;7.20;3.45;;;;;;;0.90;100.00;98082.47;10527036;28;20613;-55
2022/01/07 10:03:03;;;;;;;11.10;3.67;;;;;;;0.99;100.00;98088.94;10531253;28;20039;-53
2022/01/07 10:08:18;;;;;;;13.35;3.10;;;;;;;1.05;100.00;98090.31;10452707;22;20065;-51
2022/01/07 10:13:24;;;;;;;8.63;3.30;;;;;;;1.12;100.00;98077.44;10403678;28;20037;-53
2022/01/07 10:18:37;;;;;;;8.38;3.60;;;;;;;1.16;100.00;98081.59;10407052;28;20045;-55
2022/01/07 10:23:41;;;;;;;7.93;3.25;;;;;;;1.20;100.00;98068.00;10412509;28;20785;-55
2022/01/07 10:28:47;;;;;;;9.65;4.00;;;;;;;1.28;100.00;98079.84;10404680;28;20056;-55
2022/01/07 10:33:50;;;;;;;6.90;3.28;;;;;;;1.33;100.00;98072.41;10393562;28;20133;-53
2022/01/07 10:38:57;;;;;;;7.38;3.47;;;;;;;1.39;100.00;98053.38;10402656;28;20543;-53
2022/01/07 10:44:08;;;;;;;8.20;3.80;;;;;;;1.43;100.00;98046.88;10404309;28;20042;-55
2022/01/07 10:49:11;;;;;;;8.70;3.83;;;;;;;1.42;100.00;98047.84;10407103;28;20050;-54
2022/01/07 10:54:19;;;;;;;10.02;3.40;;;;;;;1.47;100.00;98051.00;10408442;28;20129;-54
2022/01/07 10:59:24;;;;;;;6.90;3.45;;;;;;;1.42;100.00;98047.84;10409181;28;20053;-58
2022/01/07 11:04:31;;;;;;;8.57;3.40;;;;;;;1.43;100.00;98041.56;10405497;28;20120;-57
2022/01/07 11:09:34;;;;;;;6.82;3.53;;;;;;;1.42;100.00;98028.41;10405671;28;20112;-56
2022/01/07 11:14:41;;;;;;;12.60;3.83;;;;;;;1.38;100.00;98020.69;10384159;28;20053;-57
2022/01/07 11:19:51;;;;;;;8.20;3.63;;;;;;;1.42;100.00;98023.97;10414959;28;20052;-54
2022/01/07 11:25:06;;;;;;;8.55;4.07;;;;;;;1.38;100.00;98020.69;10431518;28;20120;-59
2022/01/07 11:30:14;;;;;;;8.43;3.50;;;;;;;1.31;100.00;98007.97;10423260;28;20034;-59
2022/01/07 11:35:51;;;;;;;6.78;3.70;;;;;;;1.22;100.00;98012.16;10443455;28;20294;-59
2022/01/07 11:40:54;;;;;;;10.50;5.00;;;;;;;1.17;100.00;98017.78;10452006;28;20061;-60
2022/01/07 11:45:59;;;;;;;10.48;4.30;;;;;;;1.01;100.00;98019.84;10399554;28;20041;-57
2022/01/07 11:51:14;;;;;;;9.38;4.53;;;;;;;0.87;100.00;98007.59;10418228;28;20033;-57
2022/01/07 11:56:19;;;;;;;10.45;4.80;;;;;;;0.73;100.00;98016.53;10415608;28;20499;-56
2022/01/07 12:01:26;;;;;;;9.90;4.82;;;;;;;0.68;100.00;98010.72;10414035;28;20047;-57
2022/01/07 12:06:47;;;;;;;9.82;5.20;;;;;;;0.63;100.00;98013.69;10409544;28;20046;-57
2022/01/07 12:11:58;;;;;;;10.20;5.20;;;;;;;0.59;100.00;98009.56;10417007;28;20041;-57
2022/01/07 12:17:03;;;;;;;12.68;5.10;;;;;;;0.49;100.00;98005.84;10406079;28;20132;-56
2022/01/07 12:22:11;;;;;;;10.93;5.72;;;;;;;0.41;100.00;97999.31;10427744;28;20057;-56
2022/01/07 12:27:18;;;;;;;10.73;5.28;;;;;;;0.42;100.00;97997.50;10418582;28;20048;-57
2022/01/07 12:32:30;;;;;;;14.43;5.35;;;;;;;0.40;100.00;97996.78;10407590;28;20046;-57
2022/01/07 12:37:34;;;;;;;8.68;5.00;;;;;;;0.41;100.00;97982.56;10406619;28;20140;-53
2022/01/07 12:42:40;;;;;;;11.55;4.53;;;;;;;0.48;100.00;97981.16;10392309;28;20037;-55
2022/01/07 12:47:46;;;;;;;9.40;4.72;;;;;;;0.52;100.00;97969.41;10401621;28;20053;-52
2022/01/07 12:52:49;;;;;;;6.80;4.43;;;;;;;0.61;100.00;97959.94;10407070;28;20041;-57
2022/01/07 12:58:02;;;;;;;6.10;4.03;;;;;;;0.59;100.00;97960.06;10403520;28;20050;-57
2022/01/07 13:03:10;;;;;;;6.55;3.75;;;;;;;0.66;100.00;97960.47;10396325;28;20120;-57
2022/01/07 13:08:17;;;;;;;5.95;3.72;;;;;;;0.72;100.00;97957.34;10404207;28;20489;-56
2022/01/07 13:13:25;;;;;;;9.80;3.88;;;;;;;0.76;100.00;97955.34;10398579;28;20056;-54
2022/01/07 13:18:33;;;;;;;5.80;3.72;;;;;;;0.83;100.00;97943.31;10410815;28;20112;-57
2022/01/07 13:23:39;;;;;;;7.35;3.40;;;;;;;0.87;100.00;97944.81;10392957;28;20124;-56
2022/01/07 13:28:45;;;;;;;7.20;3.40;;;;;;;0.90;100.00;97933.13;10396415;28;20049;-60
2022/01/07 13:33:53;;;;;;;5.25;3.20;;;;;;;0.97;100.00;97930.88;10410349;28;20141;-61
2022/01/07 13:39:06;;;;;;;4.90;2.70;;;;;;;1.00;100.00;97925.34;10394555;28;20121;-55
2022/01/07 13:44:09;;;;;;;3.97;2.60;;;;;;;1.03;100.00;97930.41;10402073;28;20033;-54
2022/01/07 13:49:14;;;;;;;3.58;2.45;;;;;;;1.04;100.00;97910.88;10398477;28;20409;-63
2022/01/07 13:54:19;;;;;;;3.72;2.50;;;;;;;1.04;100.00;97918.84;10398163;28;20033;-57
2022/01/07 13:59:23;;;;;;;4.28;2.60;;;;;;;1.00;100.00;97912.09;10395532;28;20277;-57
2022/01/07 14:04:43;;;;;;;3.25;2.50;;;;;;;1.03;100.00;97914.50;10391208;28;20046;-56
2022/01/07 14:10:11;;;;;;;2.85;2.35;;;;;;;0.98;100.00;97911.34;10405308;28;20489;-57
2022/01/07 14:15:16;;;;;;;3.38;2.30;;;;;;;0.98;100.00;97914.00;10403372;28;20040;-55
2022/01/07 14:20:22;;;;;;;3.15;2.40;;;;;;;0.96;100.00;97923.88;10403169;28;20045;-54
2022/01/07 14:25:25;;;;;;;3.00;2.30;;;;;;;0.94;100.00;97928.44;10405593;28;20044;-57
2022/01/07 14:30:28;;;;;;;3.92;2.75;;;;;;;0.94;100.00;97931.09;10393946;28;20136;-57
2022/01/07 14:35:32;;;;;;;4.38;2.90;;;;;;;0.97;100.00;97929.06;10420410;28;20120;-57
2022/01/07 14:40:37;;;;;;;4.47;3.10;;;;;;;0.96;100.00;97934.47;10413834;28;20041;-58
2022/01/07 14:45:40;;;;;;;3.55;2.05;;;;;;;0.92;100.00;97934.69;10408389;28;20081;-56
2022/01/07 14:50:45;;;;;;;4.25;2.38;;;;;;;0.96;100.00;97929.19;10399062;28;20100;-54
2022/01/07 14:55:48;;;;;;;4.63;2.72;;;;;;;0.98;100.00;97937.88;10401270;28;20129;-59
2022/01/07 15:00:51;;;;;;;2.88;2.03;;;;;;;0.97;100.00;97933.53;10404123;28;20120;-58
2022/01/07 15:05:56;;;;;;;4.10;2.90;;;;;;;0.98;100.00;97940.53;10403175;28;20057;-57
2022/01/07 15:10:59;;;;;;;3.80;2.92;;;;;;;0.99;100.00;97936.91;10393719;28;20060;-58
2022/01/07 15:21:36;;;;;;;3.70;2.80;;;;;;;0.98;100.00;97948.47;10277794;28;20052;-54
2022/01/07 15:26:41;;;;;;;5.18;3.65;;;;;;;0.97;100.00;97938.81;10381624;28;20383;-58
2022/01/07 15:31:44;;;;;;;4.85;3.15;;;;;;;0.97;100.00;97949.44;10386890;28;20132;-55
2022/01/07 15:36:50;;;;;;;2.80;2.45;;;;;;;0.95;100.00;97948.69;10378808;28;20041;-58
2022/01/07 15:41:55;;;;;;;2.90;2.30;;;;;;;0.95;100.00;97951.34;10389665;28;20425;-58
2022/01/07 15:46:59;;;;;;;2.00;1.80;;;;;;;0.93;100.00;97956.78;10387183;28;20050;-60
2022/01/07 15:52:04;;;;;;;2.95;2.20;;;;;;;0.93;100.00;97959.44;10391365;28;20048;-56
2022/01/07 15:57:10;;;;;;;4.18;2.83;;;;;;;0.91;100.00;97958.69;10389799;28;20457;-59
2022/01/07 16:02:17;;;;;;;3.80;2.60;;;;;;;0.89;100.00;97958.78;10392384;28;20060;-58
2022/01/07 16:07:24;;;;;;;2.78;2.08;;;;;;;0.85;100.00;97967.94;10387560;28;20503;-57
2022/01/07 16:12:27;;;;;;;2.65;2.15;;;;;;;0.87;100.00;97963.38;10385193;28;20133;-55
2022/01/07 16:17:30;;;;;;;2.33;2.10;;;;;;;0.84;100.00;97966.25;10385911;28;20049;-56
2022/01/07 16:22:35;;;;;;;2.45;2.22;;;;;;;0.83;100.00;97967.19;10384379;28;20041;-56
2022/01/07 16:27:38;;;;;;;3.17;2.40;;;;;;;0.82;100.00;97980.56;10396140;28;20690;-57
2022/01/07 16:32:42;;;;;;;2.85;2.35;;;;;;;0.81;100.00;97968.28;10402296;28;20386;-55
2022/01/07 16:37:46;;;;;;;4.25;2.40;;;;;;;0.82;100.00;97967.31;10398850;28;20069;-54
2022/01/07 16:42:53;;;;;;;3.35;2.47;;;;;;;0.82;100.00;97970.81;10402469;28;20148;-59
2022/01/07 16:47:57;;;;;;;4.18;2.92;;;;;;;0.79;100.00;97968.38;10381990;28;20105;-56
2022/01/07 16:53:02;;;;;;;3.42;2.53;;;;;;;0.74;100.00;97962.56;10396679;28;20053;-60
2022/01/07 16:58:11;;;;;;;3.53;2.83;;;;;;;0.71;100.00;97962.78;10405790;28;20049;-57
2022/01/07 17:03:14;;;;;;;4.07;3.15;;;;;;;0.66;100.00;97965.75;10396187;28;20781;-57
2022/01/07 17:08:19;;;;;;;4.82;3.53;;;;;;;0.66;100.00;97962.25;10404189;28;20057;-57
2022/01/07 17:13:22;;;;;;;4.80;3.22;;;;;;;0.59;100.00;97953.88;10398057;28;20490;-57
2022/01/07 17:18:26;;;;;;;4.30;3.35;;;;;;;0.61;100.00;97944.88;10389761;28;20044;-60
2022/01/07 17:23:30;;;;;;;4.75;3.10;;;;;;;0.58;100.00;97942.44;10393932;28;20132;-59
2022/01/07 17:28:33;;;;;;;4.35;3.20;;;;;;;0.56;100.00;97941.72;10395241;28;20033;-59
2022/01/07 17:33:37;;;;;;;4.07;3.38;;;;;;;0.58;100.00;97941.63;10391423;28;20112;-61
2022/01/07 17:38:42;;;;;;;4.75;3.35;;;;;;;0.56;100.00;97933.75;10385841;28;20049;-56
2022/01/07 17:43:45;;;;;;;2.90;2.60;;;;;;;0.55;100.00;97929.41;10388800;28;20072;-59
2022/01/07 17:48:48;;;;;;;4.13;2.65;;;;;;;0.55;100.00;97921.44;10414450;28;20041;-60
2022/01/07 17:53:53;;;;;;;3.15;2.70;;;;;;;0.57;100.00;97918.72;10386779;28;20053;-59
2022/01/07 17:58:56;;;;;;;3.42;2.83;;;;;;;0.57;100.00;97929.31;10403241;28;20334;-55
2022/01/07 18:04:00;;;;;;;3.00;2.45;;;;;;;0.59;100.00;97927.38;10390160;28;20048;-55
2022/01/07 18:09:05;;;;;;;2.75;2.15;;;;;;;0.60;100.00;97929.94;10381960;28;20103;-57
2022/01/07 18:14:08;;;;;;;2.88;2.10;;;;;;;0.63;100.00;97935.97;10392163;28;20073;-56
2022/01/07 18:19:11;;;;;;;2.67;2.15;;;;;;;0.62;100.00;97921.84;10394572;28;20116;-54
2022/01/07 18:24:16;;;;;;;2.30;2.00;;;;;;;0.66;100.00;97927.78;10377804;28;20124;-57
2022/01/07 18:29:19;;;;;;;3.53;2.60;;;;;;;0.61;100.00;97931.63;10399897;28;20073;-56
2022/01/07 18:34:24;;;;;;;2.42;2.20;;;;;;;0.59;100.00;97938.84;10401040;28;20047;-55
2022/01/07 18:39:32;;;;;;;3.17;2.30;;;;;;;0.61;100.00;97934.28;10381193;28;20520;-58
2022/01/07 18:44:35;;;;;;;2.80;2.17;;;;;;;0.61;100.00;97926.34;10371625;28;20053;-58
2022/01/07 18:49:38;;;;;;;2.38;1.88;;;;;;;0.58;100.00;97926.53;10377727;28;20073;-58
2022/01/07 18:54:44;;;;;;;2.95;2.47;;;;;;;0.62;100.00;97919.22;10377973;28;20372;-58
2022/01/07 18:59:48;;;;;;;3.65;3.08;;;;;;;0.65;100.00;97910.22;10370981;28;20046;-59
2022/01/07 19:04:52;;;;;;;5.13;3.72;;;;;;;0.65;100.00;97915.50;10374149;28;20133;-57
2022/01/07 19:09:58;;;;;;;4.47;3.40;;;;;;;0.67;100.00;97908.28;10370319;28;20077;-58
2022/01/07 19:15:02;;;;;;;6.25;3.67;;;;;;;0.69;100.00;97911.66;10359262;28;20044;-57
2022/01/07 19:20:07;;;;;;;3.80;2.97;;;;;;;0.65;100.00;97904.91;10367157;28;20050;-60
2022/01/07 19:25:11;;;;;;;3.72;2.92;;;;;;;0.60;100.00;97903.44;10368476;28;20128;-56
2022/01/07 19:30:14;;;;;;;3.38;2.72;;;;;;;0.57;100.00;97887.75;10374590;28;20057;-54
2022/01/07 19:35:17;;;;;;;3.70;3.08;;;;;;;0.50;100.00;97881.19;10371117;28;20486;-54
2022/01/07 19:40:22;;;;;;;3.45;3.15;;;;;;;0.45;100.00;97888.63;10392836;28;20044;-60
2022/01/07 19:45:25;;;;;;;4.03;3.40;;;;;;;0.42;100.00;97879.09;10423103;28;20038;-60
2022/01/07 19:50:28;;;;;;;4.28;3.50;;;;;;;0.40;100.00;97880.19;10420665;28;20045;-60
2022/01/07 19:55:33;;;;;;;5.60;4.10;;;;;;;0.37;100.00;97867.13;10377570;28;20042;-59
2022/01/07 20:00:36;;;;;;;6.38;5.03;;;;;;;0.34;100.00;97875.31;10367431;28;20054;-60
2022/01/07 20:05:39;;;;;;;5.65;4.78;;;;;;;0.36;100.00;97868.09;10376215;28;20061;-56
2022/01/07 20:10:44;;;;;;;5.75;4.93;;;;;;;0.37;100.00;97869.78;10402544;28;20133;-55
2022/01/07 20:15:47;;;;;;;6.35;4.53;;;;;;;0.38;100.00;97876.78;10406608;28;20500;-56
2022/01/07 20:20:51;;;;;;;5.40;4.20;;;;;;;0.40;100.00;97885.47;10418429;28;20417;-57
2022/01/07 20:25:55;;;;;;;4.93;4.40;;;;;;;0.41;100.00;97873.91;10414370;28;20087;-59
2022/01/07 20:30:58;;;;;;;5.35;3.95;;;;;;;0.47;100.00;97884.06;10406132;28;20125;-59
2022/01/07 20:36:02;;;;;;;5.25;3.65;;;;;;;0.52;100.00;97881.06;10399354;28;20045;-59
2022/01/07 20:41:06;;;;;;;5.20;3.78;;;;;;;0.54;100.00;97871.22;10411695;28;20045;-55
2022/01/07 20:46:09;;;;;;;3.42;3.10;;;;;;;0.56;100.00;97859.53;10429756;28;20160;-57
2022/01/07 20:51:12;;;;;;;3.75;3.40;;;;;;;0.57;100.00;97861.22;10394992;28;20157;-53
2022/01/07 20:56:16;;;;;;;4.28;3.78;;;;;;;0.58;100.00;97847.03;10411662;28;20051;-56
2022/01/07 21:01:19;;;;;;;6.95;4.68;;;;;;;0.57;100.00;97845.31;10405992;28;20146;-54
2022/01/07 21:06:23;;;;;;;7.18;4.90;;;;;;;0.58;100.00;97844.38;10419380;28;20053;-57
2022/01/07 21:11:27;;;;;;;5.70;4.28;;;;;;;0.59;100.00;97848.72;10409762;28;20045;-56
2022/01/07 21:16:31;;;;;;;4.75;3.28;;;;;;;0.60;100.00;97837.16;10387745;28;20646;-56
2022/01/07 21:21:34;;;;;;;3.72;3.15;;;;;;;0.64;100.00;97829.81;10416912;28;20051;-54
2022/01/07 21:26:39;;;;;;;3.22;2.92;;;;;;;0.66;100.00;97819.09;10397442;28;20068;-54
2022/01/07 21:31:42;;;;;;;3.63;2.95;;;;;;;0.67;100.00;97826.09;10409485;28;20045;-57
2022/01/07 21:36:45;;;;;;;3.47;3.17;;;;;;;0.67;100.00;97810.19;10407390;28;20144;-58
2022/01/07 21:41:51;;;;;;;3.20;2.85;;;;;;;0.64;100.00;97807.78;10406438;28;20041;-58
2022/01/07 21:46:55;;;;;;;3.55;3.17;;;;;;;0.65;100.00;97818.25;10404569;28;20140;-56
2022/01/07 21:51:58;;;;;;;3.45;3.15;;;;;;;0.65;100.00;97822.72;10414898;28;20139;-55
2022/01/07 21:57:03;;;;;;;3.70;3.03;;;;;;;0.66;100.00;97821.75;10417815;28;20041;-57
2022/01/07 22:02:06;;;;;;;3.20;2.90;;;;;;;0.66;100.00;97825.25;10410609;28;20049;-58
2022/01/07 22:07:11;;;;;;;3.08;2.78;;;;;;;0.66;100.00;97824.38;10392567;28;20128;-59
2022/01/07 22:12:18;;;;;;;3.30;2.90;;;;;;;0.60;100.00;97823.03;10391320;28;20046;-58
2022/01/07 22:17:23;;;;;;;4.72;3.20;;;;;;;0.56;100.00;97817.13;10382210;28;20057;-55
2022/01/07 22:22:26;;;;;;;3.60;3.22;;;;;;;0.54;100.00;97826.16;10402020;28;20124;-57
2022/01/07 22:27:32;;;;;;;3.85;3.35;;;;;;;0.53;100.00;97824.47;10404815;28;20049;-57
2022/01/07 22:32:35;;;;;;;2.90;2.70;;;;;;;0.52;100.00;97826.28;10405080;28;20041;-57
2022/01/07 22:37:39;;;;;;;3.20;2.63;;;;;;;0.50;100.00;97816.72;10421192;28;20053;-56
2022/01/07 22:42:44;;;;;;;3.45;3.10;;;;;;;0.44;100.00;97828.63;10423449;28;20545;-57
2022/01/07 22:47:48;;;;;;;3.00;2.70;;;;;;;0.40;100.00;97821.88;10424248;28;20053;-56
2022/01/07 22:52:51;;;;;;;3.63;3.00;;;;;;;0.36;100.00;97818.59;10404141;28;20079;-58
2022/01/07 22:57:55;;;;;;;3.47;3.15;;;;;;;0.26;100.00;97812.25;10417213;28;20383;-58
2022/01/07 23:03:00;;;;;;;2.58;2.38;;;;;;;0.19;100.00;97818.97;10405965;28;20112;-56
2022/01/07 23:08:04;;;;;;;2.70;2.38;;;;;;;0.12;100.00;97818.56;10406240;28;20049;-56
2022/01/07 23:13:08;;;;;;;3.17;2.72;;;;;;;0.08;100.00;97806.50;10429347;28;20416;-57
2022/01/07 23:18:14;;;;;;;3.10;2.80;;;;;;;0.02;100.00;97802.47;10401941;28;20055;-58
2022/01/07 23:23:17;;;;;;;3.90;2.78;;;;;;;-0.04;100.00;97805.59;10411315;28;20160;-57
2022/01/07 23:28:22;;;;;;;2.55;2.35;;;;;;;-0.04;100.00;97798.47;10425170;28;20049;-56
2022/01/07 23:33:26;;;;;;;2.90;2.15;;;;;;;0.02;100.00;97801.66;10411367;28;20057;-60
2022/01/07 23:38:29;;;;;;;2.97;2.35;;;;;;;0.12;100.00;97792.09;10413712;28;20036;-58
2022/01/07 23:43:33;;;;;;;2.88;2.30;;;;;;;0.22;100.00;97793.09;10414107;28;20049;-56